Tsushima Airport
RJDT : now visible

Airfield :











YOU CAN JOIN US ON...

 
LOGIN :

Register | Disclaimer

   EN    FR    IT 

 









Legend :    VFR   Marginal VFR   IFR   Intensive IFR   Very Intensive IFR
Visi :
Ceiling :
>= 8 km
>= 3000ft
5 to 8 km
1000 to 3000 ft
1500m to 5 km
500 to 1000 ft
800 to 1500m
200 to 500 ft
< 800m
< 200 ft
Symbols :   Thunderstorms  Fog  Heavy snow  Heavy precipitations  Wind > 20 kt






- Airport Elevation : 213 ft
- IATA code : TSJ


RJDT - Tsushima

CURRENT METAR :
  • 250500Z 35004KT CAVOK 24/17 Q1011

EXPIRED METARs :
  • 250400Z 30004KT 220V340 CAVOK 24/18 Q1010
  • 250300Z 27003KT 190V360 9999 FEW020 OVC/// 24/19 Q1011
  • 250200Z 27004KT 190V330 9999 FEW020 BKN170 23/19 Q1010
  • 250100Z 29004KT 180V330 8000 FEW020 BKN180 23/18 Q1010

TAF N/A
RJJJ FIR / Asia



MET'MAP, your aeronautical weather chart ! - Copyright ORBIFLY December 2007 - Disclaimer

ORBIFLY MET'MAP TEAM :

Programming & Development : Alexandra Zaïnal
Original concept : Baudouin d'Aumeries
Technical & hardware support : Manuel Goepfert
Assistance : Marc-Olivier Méhu




SOURCES & CREDITS :

   NOAA       Earth
Advisory